^^
Grace C. Lehan Memorial Weather Station Historical Data
Daily Summary for September 27, 2021 Units:  Metric    English   Both
Daily Weekly Monthly Yearly
  High: Low: Average:
Temperature: 13.2 °C 10.2 °C 11.8 °C
Dew Point: 11.5 °C 8.4 °C 9.9 °C
Humidity: 96% 82% 88%
Wind Speed: 14.5km/h 0km/h 3.2km/h
Wind Gust: 43.5km/h - -
Wind- - SW
Pressure: 1010 hPa 995.8 hPa -
Precipitation: 1.78 mm    
 
 
Tabular Data for September 27, 2021
Time Temperature Dew Point Pressure Wind Wind Speed Wind Gust Humidity Rainfall Rate (Hourly) solar
00:00 10.9 °C 10.3 °C 997.2 hPa WNW 14.5 km/h 29 km/h 96% 0.76 mm 0 W/m2
00:09 10.8 °C 10.2 °C 997.2 hPa NNW 4.7 km/h 20.9 km/h 96% 1.02 mm 0 W/m2
00:14 10.8 °C 10.2 °C 997.2 hPa NNW 2.3 km/h 20.9 km/h 96% 1.02 mm 0 W/m2
00:19 10.8 °C 10.2 °C 996.8 hPa NW 4.7 km/h 27.4 km/h 96% 1.27 mm 0 W/m2
00:24 10.8 °C 10.2 °C 996.8 hPa NNW 6.6 km/h 27.4 km/h 96% 1.27 mm 0 W/m2
00:29 10.8 °C 10.2 °C 996.8 hPa NNW 1.6 km/h 27.4 km/h 96% 1.52 mm 0 W/m2
00:34 10.8 °C 10.2 °C 996.8 hPa NNW 7.6 km/h 32.2 km/h 96% 1.52 mm 0 W/m2
00:39 10.8 °C 10.2 °C 996.8 hPa NW 7.9 km/h 32.2 km/h 96% 1.27 mm 0 W/m2
00:44 10.8 °C 10.2 °C 996.5 hPa NW 5.3 km/h 32.2 km/h 96% 1.27 mm 0 W/m2
00:49 10.8 °C 10.2 °C 996.5 hPa NNW 6.1 km/h 32.2 km/h 96% 1.52 mm 0 W/m2
00:54 10.7 °C 10.1 °C 996.8 hPa NNW 6.8 km/h 32.2 km/h 96% 1.52 mm 0 W/m2
00:59 10.7 °C 10.1 °C 996.8 hPa NW 2.6 km/h 32.2 km/h 96% 1.52 mm 0 W/m2
01:04 10.7 °C 10.1 °C 996.8 hPa NW 7.2 km/h 32.2 km/h 96% 1.52 mm 0 W/m2
01:09 10.7 °C 10.1 °C 996.8 hPa NNW 5.5 km/h 27.4 km/h 96% 0.76 mm 0 W/m2
01:14 10.8 °C 10.2 °C 996.8 hPa NW 6.1 km/h 27.4 km/h 96% 0.76 mm 0 W/m2
01:19 10.8 °C 10.2 °C 996.8 hPa NNW 4.3 km/h 29 km/h 96% 0.76 mm 0 W/m2
01:24 10.8 °C 10.2 °C 996.8 hPa NNW 3.7 km/h 29 km/h 96% 0.76 mm 0 W/m2
01:29 10.8 °C 10.2 °C 996.5 hPa NNW 6.8 km/h 29 km/h 96% 0.76 mm 0 W/m2
01:34 10.8 °C 10.2 °C 996.5 hPa NW 4.2 km/h 29 km/h 96% 0.76 mm 0 W/m2
01:39 10.9 °C 10.3 °C 996.5 hPa NNW 3.1 km/h 25.7 km/h 96% 0.76 mm 0 W/m2
01:44 10.9 °C 10.3 °C 996.5 hPa NNE 4 km/h 32.2 km/h 96% 0.76 mm 0 W/m2
01:49 11 °C 10.4 °C 996.5 hPa NNW 2.9 km/h 32.2 km/h 96% 0.76 mm 0 W/m2
01:54 11.1 °C 10.4 °C 996.5 hPa NNW 3.5 km/h 32.2 km/h 96% 0.76 mm 0 W/m2
01:59 11.1 °C 10.5 °C 996.5 hPa NNW 6 km/h 32.2 km/h 96% 1.02 mm 0 W/m2
02:04 11.2 °C 10.6 °C 996.5 hPa NNE 1.4 km/h 32.2 km/h 96% 1.02 mm 0 W/m2
02:09 11.3 °C 10.7 °C 996.2 hPa NNW 3.9 km/h 19.3 km/h 96% 0.51 mm 0 W/m2
02:14 11.3 °C 10.7 °C 996.2 hPa NNW 2.7 km/h 20.9 km/h 96% 0.51 mm 0 W/m2
02:19 11.4 °C 10.8 °C 996.2 hPa NNW 8.4 km/h 29 km/h 96% 0.51 mm 0 W/m2
02:24 11.4 °C 10.8 °C 996.2 hPa NNW 4.3 km/h 29 km/h 96% 0.51 mm 0 W/m2
02:29 11.5 °C 10.9 °C 996.2 hPa NNW 4.3 km/h 29 km/h 96% 0.51 mm 0 W/m2
02:34 11.6 °C 10.9 °C 996.2 hPa NNW 5.3 km/h 29 km/h 96% 0.51 mm 0 W/m2
02:39 11.6 °C 11 °C 996.2 hPa NNW 5.8 km/h 24.1 km/h 96% 0.25 mm 0 W/m2
02:44 11.7 °C 11.1 °C 996.2 hPa North 2.3 km/h 24.1 km/h 95.9% 0.25 mm 0 W/m2
02:49 11.7 °C 10.9 °C 996.2 hPa NNW 5.8 km/h 24.1 km/h 95% 0.25 mm 0 W/m2
02:54 11.8 °C 11 °C 996.2 hPa NNW 5 km/h 27.4 km/h 95% 0.25 mm 0 W/m2
02:59 11.8 °C 11.1 °C 996.2 hPa NW 2.4 km/h 30.6 km/h 95% 0.25 mm 0 W/m2
03:04 11.8 °C 11.1 °C 996.2 hPa NNW 3.9 km/h 30.6 km/h 95% 0.25 mm 0 W/m2
03:09 11.9 °C 11.1 °C 995.8 hPa North 7.4 km/h 40.2 km/h 95% 0 mm 0 W/m2
03:14 11.9 °C 11.2 °C 995.8 hPa NNW 9 km/h 40.2 km/h 95% 0 mm 0 W/m2
03:19 12 °C 11.2 °C 995.8 hPa NNW 7.4 km/h 40.2 km/h 94.5% 0 mm 0 W/m2
03:24 12.1 °C 11.2 °C 995.8 hPa NW 4.8 km/h 40.2 km/h 94.1% 0 mm 0 W/m2
03:29 12.1 °C 11.2 °C 995.8 hPa NNW 12.2 km/h 40.2 km/h 94% 0 mm 0 W/m2
03:34 12.2 °C 11.2 °C 995.8 hPa North 3.2 km/h 40.2 km/h 94% 0 mm 0 W/m2
03:39 12.2 °C 11.3 °C 995.8 hPa NW 5 km/h 35.4 km/h 94% 0 mm 0 W/m2
03:44 12.3 °C 11.4 °C 995.8 hPa NNW 8 km/h 35.4 km/h 94% 0 mm 0 W/m2
03:49 12.4 °C 11.3 °C 995.8 hPa NNW 8.9 km/h 35.4 km/h 93% 0 mm 0 W/m2
03:54 12.4 °C 11.4 °C 995.8 hPa NW 7.6 km/h 35.4 km/h 93% 0 mm 0 W/m2
03:59 12.6 °C 11.4 °C 995.8 hPa NNW 5.1 km/h 35.4 km/h 93% 0 mm 0 W/m2
04:09 12.6 °C 11.3 °C 995.8 hPa NNW 2.9 km/h 20.9 km/h 92% 0 mm 0 W/m2
04:14 12.7 °C 11.4 °C 995.8 hPa NNW 10.8 km/h 40.2 km/h 92% 0 mm 0 W/m2
04:19 12.7 °C 11.4 °C 996.2 hPa NNW 7.9 km/h 40.2 km/h 91.6% 0 mm 0 W/m2
04:24 12.8 °C 11.4 °C 996.2 hPa NNW 8.7 km/h 40.2 km/h 91% 0 mm 0 W/m2
04:29 12.8 °C 11.4 °C 996.2 hPa NNW 5.6 km/h 40.2 km/h 91% 0 mm 0 W/m2
04:34 12.9 °C 11.4 °C 995.8 hPa NW 5.1 km/h 40.2 km/h 91% 0 mm 0 W/m2
04:39 12.9 °C 11.5 °C 996.2 hPa NNW 4.7 km/h 30.6 km/h 90.9% 0 mm 0 W/m2
04:44 12.9 °C 11.4 °C 996.2 hPa NNW 6 km/h 30.6 km/h 90% 0 mm 0 W/m2
04:49 13 °C 11.4 °C 996.2 hPa NNW 6.8 km/h 32.2 km/h 90% 0 mm 0 W/m2
04:54 13 °C 11.4 °C 996.2 hPa NNW 8 km/h 35.4 km/h 90% 0 mm 0 W/m2
04:59 13 °C 11.4 °C 996.2 hPa NNW 5.6 km/h 35.4 km/h 90% 0 mm 0 W/m2
05:04 13 °C 11.4 °C 996.2 hPa NNE 3.9 km/h 35.4 km/h 89.9% 0 mm 0 W/m2
05:09 13.1 °C 11.3 °C 996.2 hPa NW 8.4 km/h 30.6 km/h 89.4% 0 mm 0 W/m2
05:14 13.1 °C 11.3 °C 996.2 hPa NNE 3.9 km/h 30.6 km/h 89% 0 mm 0 W/m2
05:19 13.2 °C 11.2 °C 996.2 hPa WNW 5.3 km/h 30.6 km/h 88% 0 mm 0 W/m2
05:24 13.2 °C 11.3 °C 996.5 hPa NNE 7.9 km/h 33.8 km/h 88% 0 mm 0 W/m2
05:29 13.2 °C 11.3 °C 996.5 hPa NNW 5.5 km/h 33.8 km/h 88% 0 mm 0 W/m2
05:34 13.2 °C 11.3 °C 996.5 hPa NW 3.4 km/h 33.8 km/h 88.1% 0 mm 0 W/m2
05:39 13.1 °C 11.2 °C 996.5 hPa NNW 11.1 km/h 33.8 km/h 88% 0 mm 0 W/m2
05:44 13.1 °C 11.2 °C 996.5 hPa NNW 5.5 km/h 33.8 km/h 88% 0 mm 0 W/m2
05:49 13.1 °C 11.2 °C 996.5 hPa NNW 12.1 km/h 40.2 km/h 88.3% 0 mm 0 W/m2
05:54 12.9 °C 11.2 °C 996.5 hPa NNW 9.3 km/h 40.2 km/h 89% 0 mm 0 W/m2
05:59 12.9 °C 11.1 °C 996.5 hPa North 8.7 km/h 40.2 km/h 88.7% 0 mm 0 W/m2
06:04 12.8 °C 10.9 °C 996.5 hPa NNW 8.7 km/h 40.2 km/h 88.1% 0 mm 0 W/m2
06:09 12.8 °C 10.9 °C 996.8 hPa NNW 5.8 km/h 33.8 km/h 88% 0 mm 0 W/m2
06:14 12.9 °C 10.9 °C 996.8 hPa North 9.8 km/h 38.6 km/h 87.8% 0 mm 0 W/m2
06:19 12.8 °C 10.7 °C 996.8 hPa NNW 5.6 km/h 38.6 km/h 87% 0 mm 0 W/m2
06:24 12.9 °C 10.8 °C 996.8 hPa North 7.1 km/h 38.6 km/h 87% 0 mm 0 W/m2
06:29 12.8 °C 10.7 °C 997.2 hPa NNW 9.5 km/h 38.6 km/h 86.7% 0 mm 0 W/m2
06:34 12.8 °C 10.6 °C 997.2 hPa North 4.8 km/h 38.6 km/h 86% 0 mm 0 W/m2
06:39 12.8 °C 10.7 °C 997.5 hPa NNW 9.3 km/h 38.6 km/h 86.9% 0 mm 0 W/m2
06:44 12.7 °C 10.6 °C 997.5 hPa NNW 3.5 km/h 38.6 km/h 87% 0 mm 0 W/m2
06:49 12.7 °C 10.6 °C 997.5 hPa NNW 3.5 km/h 38.6 km/h 87% 0 mm 0 W/m2
06:54 12.7 °C 10.5 °C 997.5 hPa NNW 8.4 km/h 38.6 km/h 86.7% 0 mm 0 W/m2
06:59 12.7 °C 10.4 °C 997.9 hPa NNE 6.1 km/h 38.6 km/h 86% 0 mm 0 W/m2
07:04 12.7 °C 10.4 °C 997.9 hPa North 9 km/h 38.6 km/h 86% 0 mm 0 W/m2
07:09 12.7 °C 10.4 °C 997.9 hPa North 3.5 km/h 29 km/h 86% 0 mm 0 W/m2
07:14 12.7 °C 10.4 °C 997.9 hPa NW 4.5 km/h 29 km/h 86% 0 mm 0 W/m2
07:19 12.7 °C 10.4 °C 998.2 hPa NNW 8.2 km/h 40.2 km/h 86% 0 mm 9 W/m2
07:24 12.7 °C 10.4 °C 998.5 hPa North 6.4 km/h 40.2 km/h 86% 0 mm 11 W/m2
07:29 12.6 °C 10.3 °C 998.5 hPa NNW 4.8 km/h 40.2 km/h 86% 0 mm 11 W/m2
07:34 12.6 °C 10.3 °C 998.5 hPa NNW 4.7 km/h 40.2 km/h 86% 0 mm 18 W/m2
07:39 12.4 °C 10.3 °C 998.9 hPa NNW 6.3 km/h 27.4 km/h 86.8% 0 mm 16 W/m2
07:44 12.4 °C 10.3 °C 998.9 hPa NNW 5.1 km/h 29 km/h 87% 0 mm 19 W/m2
07:49 12.3 °C 10.3 °C 998.9 hPa NNW 4.7 km/h 38.6 km/h 87.7% 0 mm 21 W/m2
07:54 12.3 °C 10.3 °C 998.9 hPa NNW 5 km/h 38.6 km/h 88% 0 mm 28 W/m2
07:59 12.2 °C 10.3 °C 999.2 hPa NNW 9.2 km/h 38.6 km/h 88% 0 mm 28 W/m2
08:00 12.2 °C 10.3 °C 999.2 hPa NNE 3.2 km/h 38.6 km/h 88% 0 mm 25 W/m2
08:09 12.1 °C 10.3 °C 999.5 hPa North 5.3 km/h 43.5 km/h 89% 0 mm 49 W/m2
08:14 12.1 °C 10.2 °C 999.5 hPa North 4 km/h 43.5 km/h 88.2% 0 mm 47 W/m2
08:19 12.2 °C 10.2 °C 999.5 hPa NNW 5.1 km/h 43.5 km/h 88% 0 mm 47 W/m2
08:24 12.2 °C 10.3 °C 999.9 hPa North 7.2 km/h 43.5 km/h 88% 0 mm 39 W/m2
08:29 12.2 °C 10.3 °C 1000.2 hPa NNW 7.1 km/h 43.5 km/h 88% 0 mm 46 W/m2
08:34 12.2 °C 10.2 °C 1000.2 hPa NNW 6.3 km/h 43.5 km/h 88% 0 mm 47 W/m2
08:39 12.1 °C 10.2 °C 1000.6 hPa NNW 4.2 km/h 41.8 km/h 88.2% 0 mm 37 W/m2
08:44 12.1 °C 10.3 °C 1000.6 hPa NNW 2.9 km/h 41.8 km/h 88.8% 0 mm 35 W/m2
08:49 12 °C 10.2 °C 1000.6 hPa NW 6.8 km/h 41.8 km/h 89% 0 mm 51 W/m2
08:54 11.9 °C 10.2 °C 1000.6 hPa NNW 6.1 km/h 41.8 km/h 89% 0 mm 60 W/m2
08:59 11.9 °C 10.2 °C 1000.6 hPa NNW 7.4 km/h 41.8 km/h 89% 0 mm 62 W/m2
09:04 11.9 °C 10.2 °C 1000.9 hPa NNW 4 km/h 41.8 km/h 89% 0 mm 62 W/m2
09:09 11.9 °C 10.2 °C 1000.9 hPa North 4.7 km/h 25.7 km/h 89% 0 mm 65 W/m2
09:14 11.9 °C 10.2 °C 1001.2 hPa NNW 5.3 km/h 30.6 km/h 89% 0 mm 65 W/m2
09:19 11.9 °C 10.2 °C 1001.2 hPa North 2.9 km/h 30.6 km/h 89% 0 mm 76 W/m2
09:24 11.9 °C 10.2 °C 1001.2 hPa NNW 3.7 km/h 30.6 km/h 89% 0 mm 100 W/m2
09:29 11.9 °C 10.1 °C 1001.6 hPa NNW 6.3 km/h 30.6 km/h 88.5% 0 mm 86 W/m2
09:34 12 °C 10.2 °C 1001.6 hPa NNE 0.8 km/h 30.6 km/h 89% 0 mm 100 W/m2
09:39 12 °C 10.3 °C 1001.6 hPa NNE 4 km/h 22.5 km/h 89.4% 0 mm 118 W/m2
09:44 11.9 °C 10.3 °C 1001.6 hPa North 4.3 km/h 30.6 km/h 90% 0 mm 128 W/m2
09:49 11.9 °C 10.3 °C 1001.6 hPa NNW 4.2 km/h 30.6 km/h 90% 0 mm 98 W/m2
09:54 11.8 °C 10.3 °C 1001.9 hPa North 2.7 km/h 30.6 km/h 90% 0 mm 98 W/m2
09:59 11.8 °C 10.2 °C 1001.9 hPa NNW 4.5 km/h 30.6 km/h 90% 0 mm 102 W/m2
10:04 11.8 °C 10.2 °C 1001.9 hPa North 1 km/h 30.6 km/h 90% 0 mm 72 W/m2
10:09 11.8 °C 10.2 °C 1001.9 hPa NNW 4.3 km/h 25.7 km/h 90% 0 mm 118 W/m2
10:14 11.8 °C 10.2 °C 1001.9 hPa NNW 2.4 km/h 25.7 km/h 90% 0 mm 114 W/m2
10:19 11.8 °C 10.2 °C 1002.3 hPa NNW 6 km/h 27.4 km/h 89.5% 0 mm 121 W/m2
10:24 11.8 °C 10.1 °C 1002.3 hPa North 2.7 km/h 27.4 km/h 89% 0 mm 116 W/m2
10:29 11.9 °C 10.2 °C 1002.6 hPa NNW 5.6 km/h 27.4 km/h 89% 0 mm 120 W/m2
10:34 11.9 °C 10.2 °C 1002.6 hPa NNW 3.2 km/h 27.4 km/h 89% 0 mm 127 W/m2
10:39 12 °C 10.2 °C 1002.6 hPa NNW 7.1 km/h 25.7 km/h 88.4% 0 mm 127 W/m2
10:44 12.1 °C 10.1 °C 1002.6 hPa ENE 2.9 km/h 25.7 km/h 88% 0 mm 123 W/m2
10:49 12.1 °C 10.2 °C 1002.6 hPa NE 1.8 km/h 25.7 km/h 88% 0 mm 132 W/m2
10:54 12.1 °C 10.2 °C 1002.6 hPa North 2.9 km/h 25.7 km/h 88% 0 mm 148 W/m2
10:59 12.1 °C 10.1 °C 1002.6 hPa NNW 6.4 km/h 33.8 km/h 87.7% 0 mm 125 W/m2
11:04 12.1 °C 10 °C 1002.6 hPa NNW 3.4 km/h 33.8 km/h 87.1% 0 mm 216 W/m2
11:09 12.2 °C 10.1 °C 1002.6 hPa North 1.6 km/h 25.7 km/h 87% 0 mm 162 W/m2
11:14 12.2 °C 10.1 °C 1002.9 hPa NNW 6.3 km/h 27.4 km/h 87% 0 mm 120 W/m2
11:19 12.2 °C 10.1 °C 1002.9 hPa NNE 3.2 km/h 27.4 km/h 86.7% 0 mm 120 W/m2
11:24 12.2 °C 10.1 °C 1002.9 hPa NW 3.4 km/h 27.4 km/h 87% 0 mm 135 W/m2
11:29 12.2 °C 10 °C 1003.3 hPa NW 3.7 km/h 27.4 km/h 86.5% 0 mm 111 W/m2
11:34 12.1 °C 9.8 °C 1003.6 hPa North 3.4 km/h 27.4 km/h 86% 0 mm 118 W/m2
11:39 12.1 °C 9.8 °C 1003.6 hPa NNW 5 km/h 20.9 km/h 86% 0 mm 125 W/m2
11:44 12.1 °C 9.8 °C 1003.6 hPa North 4.3 km/h 32.2 km/h 86% 0 mm 134 W/m2
11:49 12.1 °C 9.8 °C 1003.6 hPa North 4.2 km/h 32.2 km/h 86% 0 mm 142 W/m2
11:54 12.1 °C 9.8 °C 1003.3 hPa NNW 4.7 km/h 32.2 km/h 86% 0 mm 148 W/m2
11:59 12.2 °C 9.9 °C 1003.6 hPa NNW 4.7 km/h 32.2 km/h 86% 0 mm 123 W/m2
12:09 12.2 °C 9.7 °C 1003.9 hPa NNE 3.5 km/h 14.5 km/h 85.1% 0 mm 172 W/m2
12:14 12.2 °C 9.8 °C 1003.6 hPa NW 2.6 km/h 17.7 km/h 85.3% 0 mm 172 W/m2
12:19 12.2 °C 9.8 °C 1003.9 hPa ENE 1.3 km/h 17.7 km/h 85.2% 0 mm 118 W/m2
12:24 12.2 °C 9.7 °C 1003.9 hPa NNE 1 km/h 17.7 km/h 85% 0 mm 134 W/m2
12:29 12.2 °C 9.7 °C 1003.9 hPa North 1 km/h 17.7 km/h 85% 0 mm 109 W/m2
12:34 12.2 °C 9.7 °C 1003.9 hPa NE 4.3 km/h 17.7 km/h 85% 0 mm 102 W/m2
12:39 12.2 °C 9.6 °C 1003.9 hPa NE 2.1 km/h 19.3 km/h 84.5% 0 mm 111 W/m2
12:44 12.2 °C 9.7 °C 1003.9 hPa North 2.1 km/h 20.9 km/h 85% 0 mm 160 W/m2
12:49 12.2 °C 9.8 °C 1003.9 hPa NNW 1.8 km/h 20.9 km/h 85% 0 mm 142 W/m2
12:54 12.3 °C 9.8 °C 1003.9 hPa NNW 2.9 km/h 24.1 km/h 84.8% 0 mm 148 W/m2
12:59 12.4 °C 9.8 °C 1003.9 hPa NNW 5 km/h 33.8 km/h 84.1% 0 mm 148 W/m2
13:04 12.4 °C 9.8 °C 1003.9 hPa North 2.9 km/h 33.8 km/h 84% 0 mm 148 W/m2
13:09 12.4 °C 9.8 °C 1003.9 hPa North 4.2 km/h 20.9 km/h 84% 0 mm 193 W/m2
13:14 12.5 °C 9.9 °C 1003.9 hPa North 4 km/h 25.7 km/h 84% 0 mm 207 W/m2
13:19 12.6 °C 9.9 °C 1003.9 hPa North 1.8 km/h 25.7 km/h 84% 0 mm 130 W/m2
13:24 12.6 °C 9.9 °C 1003.9 hPa North 4.3 km/h 25.7 km/h 83.5% 0 mm 183 W/m2
13:29 12.7 °C 10 °C 1004.3 hPa NNW 3.5 km/h 33.8 km/h 83.9% 0 mm 183 W/m2
13:34 12.7 °C 10 °C 1004.3 hPa NNW 4 km/h 33.8 km/h 83.6% 0 mm 163 W/m2
13:39 12.7 °C 9.9 °C 1004.3 hPa NW 6.4 km/h 30.6 km/h 83% 0 mm 158 W/m2
13:44 12.8 °C 9.9 °C 1004.3 hPa North 2.3 km/h 30.6 km/h 83.2% 0 mm 153 W/m2
13:49 12.7 °C 9.9 °C 1004.3 hPa NNW 3.5 km/h 30.6 km/h 83% 0 mm 121 W/m2
13:54 12.7 °C 9.8 °C 1004.3 hPa NE 1.4 km/h 30.6 km/h 83% 0 mm 148 W/m2
13:59 12.7 °C 9.8 °C 1004.6 hPa NE 1.4 km/h 30.6 km/h 83% 0 mm 155 W/m2
14:04 12.7 °C 9.9 °C 1004.6 hPa North 1.1 km/h 30.6 km/h 83% 0 mm 155 W/m2
14:09 12.7 °C 9.9 °C 1004.6 hPa North 3.4 km/h 19.3 km/h 83% 0 mm 104 W/m2
14:14 12.8 °C 9.9 °C 1004.6 hPa NNE 1.3 km/h 19.3 km/h 83% 0 mm 93 W/m2
14:19 12.8 °C 9.9 °C 1004.6 hPa North 1.6 km/h 19.3 km/h 83% 0 mm 76 W/m2
14:24 12.7 °C 9.9 °C 1005 hPa NE 2.9 km/h 24.1 km/h 83% 0 mm 51 W/m2
14:29 12.7 °C 9.8 °C 1005 hPa North 1.8 km/h 24.1 km/h 82.8% 0 mm 46 W/m2
14:34 12.7 °C 9.8 °C 1005 hPa NNE 1.9 km/h 24.1 km/h 82.4% 0 mm 58 W/m2
14:39 12.7 °C 9.8 °C 1005.3 hPa NE 1 km/h 9.7 km/h 83% 0 mm 54 W/m2
14:44 12.7 °C 9.8 °C 1005.3 hPa NE 0.8 km/h 9.7 km/h 83% 0 mm 54 W/m2
14:49 12.6 °C 9.9 °C 1005.3 hPa NNE 1.6 km/h 16.1 km/h 83.4% 0 mm 97 W/m2
14:54 12.6 °C 10.1 °C 1005.6 hPa North 2.1 km/h 17.7 km/h 84.9% 0 mm 107 W/m2
14:59 12.5 °C 10.2 °C 1005.6 hPa NE 0.6 km/h 17.7 km/h 86% 0 mm 109 W/m2
15:04 12.4 °C 10.1 °C 1006 hPa NNW 2.4 km/h 20.9 km/h 86% 0 mm 79 W/m2
15:09 12.3 °C 10.2 °C 1006 hPa ENE 0.8 km/h 20.9 km/h 86.9% 0 mm 70 W/m2
15:14 12.2 °C 10.1 °C 1006.3 hPa NE 1.1 km/h 20.9 km/h 87% 0 mm 70 W/m2
15:19 12.2 °C 10.1 °C 1006.3 hPa ENE 0.8 km/h 20.9 km/h 87.2% 0 mm 81 W/m2
15:24 12.1 °C 10.2 °C 1006.3 hPa ENE 1.3 km/h 20.9 km/h 88% 0 mm 77 W/m2
15:29 12.1 °C 10.2 °C 1006.3 hPa North 1 km/h 20.9 km/h 88% 0 mm 98 W/m2
15:34 12.1 °C 10.2 °C 1006.7 hPa North 2.6 km/h 20.9 km/h 87.8% 0 mm 100 W/m2
15:39 12.2 °C 10.1 °C 1006.7 hPa NNE 1.9 km/h 19.3 km/h 87% 0 mm 102 W/m2
15:44 12.2 °C 10.1 °C 1006.7 hPa North 0.6 km/h 19.3 km/h 87% 0 mm 104 W/m2
15:49 12.2 °C 10.1 °C 1006.7 hPa NW 2.7 km/h 20.9 km/h 87% 0 mm 84 W/m2
15:54 12.2 °C 10.2 °C 1006.7 hPa NNW 1.1 km/h 20.9 km/h 87.2% 0 mm 95 W/m2
15:59 12.2 °C 10.3 °C 1006.7 hPa NNW 0.6 km/h 20.9 km/h 87.8% 0 mm 95 W/m2
16:00 12.2 °C 10.3 °C 1006.7 hPa Calm   20.9 km/h 88% 0 mm 74 W/m2
16:09 12.2 °C 10.1 °C 1007 hPa NW 1 km/h 14.5 km/h 87% 0 mm 65 W/m2
16:14 12.2 °C 10.1 °C 1007 hPa NNE 2.3 km/h 14.5 km/h 87% 0 mm 60 W/m2
16:19 12.2 °C 10 °C 1007 hPa NE 1.8 km/h 14.5 km/h 86.7% 0 mm 63 W/m2
16:24 12.2 °C 9.9 °C 1007 hPa North 1.1 km/h 20.9 km/h 86% 0 mm 62 W/m2
16:29 12.2 °C 9.9 °C 1007 hPa North 1.6 km/h 20.9 km/h 86% 0 mm 39 W/m2
16:34 12.2 °C 9.9 °C 1007 hPa NNW 0.3 km/h 20.9 km/h 86% 0 mm 51 W/m2
16:39 12.2 °C 9.8 °C 1007 hPa NNE 0.8 km/h 12.9 km/h 85.3% 0 mm 51 W/m2
16:44 12.3 °C 9.8 °C 1007.3 hPa North 1.1 km/h 19.3 km/h 84.9% 0 mm 23 W/m2
16:49 12.3 °C 9.7 °C 1007.3 hPa NE 2.6 km/h 19.3 km/h 84.1% 0 mm 19 W/m2
16:54 12.3 °C 9.6 °C 1007.3 hPa NNE 0.8 km/h 19.3 km/h 83.1% 0 mm 19 W/m2
16:59 12.4 °C 9.6 °C 1007.7 hPa North 1.3 km/h 19.3 km/h 83% 0 mm 21 W/m2
17:04 12.4 °C 9.6 °C 1007.7 hPa NNE 0.6 km/h 19.3 km/h 83% 0 mm 19 W/m2
17:09 12.4 °C 9.7 °C 1007.3 hPa North 0.6 km/h 8 km/h 83.2% 0 mm 19 W/m2
17:14 12.4 °C 9.7 °C 1007.7 hPa ENE 0.8 km/h 8 km/h 83.2% 0 mm 25 W/m2
17:19 12.4 °C 9.6 °C 1007.7 hPa ENE 1.3 km/h 9.7 km/h 83% 0 mm 25 W/m2
17:24 12.3 °C 9.6 °C 1007.7 hPa ENE 1.6 km/h 16.1 km/h 82.9% 0 mm 16 W/m2
17:29 12.3 °C 9.3 °C 1008 hPa ENE 0.8 km/h 16.1 km/h 82% 0 mm 12 W/m2
17:34 12.3 °C 9.3 °C 1008 hPa NE 1.1 km/h 16.1 km/h 82% 0 mm 9 W/m2
17:39 12.3 °C 9.3 °C 1008 hPa ENE 1.8 km/h 8 km/h 82% 0 mm 5 W/m2
17:44 12.3 °C 9.4 °C 1008 hPa North 0.5 km/h 8 km/h 82.5% 0 mm 5 W/m2
17:49 12.2 °C 9.3 °C 1008 hPa NE 1.3 km/h 8 km/h 82.1% 0 mm 0 W/m2
17:54 12.2 °C 9.2 °C 1008 hPa ENE 1 km/h 8 km/h 82% 0 mm 0 W/m2
17:59 12.2 °C 9.2 °C 1008 hPa NE 1 km/h 14.5 km/h 82.2% 0 mm 0 W/m2
18:04 12.1 °C 9.2 °C 1008 hPa ENE 1 km/h 14.5 km/h 82% 0 mm 0 W/m2
18:09 12.1 °C 9.1 °C 1008.4 hPa NE 2.6 km/h 16.1 km/h 82% 0 mm 0 W/m2
18:14 12 °C 9.1 °C 1008.4 hPa ENE 2.3 km/h 16.1 km/h 82% 0 mm 0 W/m2
18:19 11.9 °C 9 °C 1008.4 hPa ENE 2.6 km/h 16.1 km/h 82% 0 mm 0 W/m2
18:24 11.9 °C 9.1 °C 1008.4 hPa ENE 1 km/h 16.1 km/h 82.5% 0 mm 0 W/m2
18:29 11.9 °C 9.1 °C 1008.4 hPa ENE 0.5 km/h 16.1 km/h 83% 0 mm 0 W/m2
18:34 11.8 °C 9.1 °C 1008.4 hPa North 0.6 km/h 16.1 km/h 83% 0 mm 0 W/m2
18:39 11.8 °C 9 °C 1008.4 hPa NE 0.5 km/h 6.4 km/h 83% 0 mm 0 W/m2
18:44 11.7 °C 9.1 °C 1008.4 hPa NE 0.2 km/h 6.4 km/h 84% 0 mm 0 W/m2
18:49 11.7 °C 9.1 °C 1008.4 hPa ENE 0.2 km/h 6.4 km/h 84% 0 mm 0 W/m2
18:54 11.7 °C 9.1 °C 1008.4 hPa ENE 0.2 km/h 6.4 km/h 84% 0 mm 0 W/m2
18:59 11.6 °C 9.1 °C 1008.7 hPa East 0.3 km/h 6.4 km/h 84.2% 0 mm 0 W/m2
19:04 11.6 °C 9.1 °C 1008.7 hPa ENE 0.6 km/h 6.4 km/h 84.7% 0 mm 0 W/m2
19:09 11.6 °C 9.1 °C 1008.7 hPa ENE 0.6 km/h 6.4 km/h 85% 0 mm 0 W/m2
19:14 11.5 °C 9.1 °C 1008.7 hPa ENE 1.1 km/h 11.3 km/h 85% 0 mm 0 W/m2
19:19 11.5 °C 9.1 °C 1008.7 hPa NE 0.2 km/h 11.3 km/h 85% 0 mm 0 W/m2
19:24 11.4 °C 9 °C 1008.7 hPa NE 0.3 km/h 11.3 km/h 85% 0 mm 0 W/m2
19:29 11.4 °C 8.9 °C 1008.4 hPa NE 0.8 km/h 11.3 km/h 85% 0 mm 0 W/m2
19:34 11.3 °C 9.1 °C 1008.4 hPa Calm   11.3 km/h 85.8% 0 mm 0 W/m2
19:39 11.3 °C 9.1 °C 1008.7 hPa NE 0.5 km/h 4.8 km/h 86% 0 mm 0 W/m2
19:44 11.3 °C 9 °C 1008.7 hPa Calm   4.8 km/h 86% 0 mm 0 W/m2
19:49 11.3 °C 9 °C 1008.7 hPa Calm   4.8 km/h 86% 0 mm 0 W/m2
19:54 11.3 °C 9 °C 1008.7 hPa Calm   4.8 km/h 86% 0 mm 0 W/m2
19:59 11.2 °C 9.1 °C 1008.7 hPa Calm   4.8 km/h 86.7% 0 mm 0 W/m2
20:00 11.2 °C 9.2 °C 1008.7 hPa Calm   4.8 km/h 87% 0 mm 0 W/m2
20:09 11.3 °C 9.2 °C 1009 hPa Calm     87.1% 0 mm 0 W/m2
20:14 11.3 °C 9.4 °C 1009 hPa Calm     88% 0 mm 0 W/m2
20:19 11.3 °C 9.4 °C 1009 hPa Calm     88% 0 mm 0 W/m2
20:24 11.2 °C 9.3 °C 1009 hPa Calm     88% 0 mm 0 W/m2
20:29 11.2 °C 9.2 °C 1009 hPa Calm     87.5% 0 mm 0 W/m2
20:34 11.1 °C 9 °C 1009 hPa Calm     87% 0 mm 0 W/m2
20:39 10.9 °C 8.9 °C 1009 hPa Calm     87.3% 0 mm 0 W/m2
20:44 10.8 °C 8.9 °C 1009.4 hPa Calm     88% 0 mm 0 W/m2
20:49 10.7 °C 8.8 °C 1009.4 hPa Calm     88% 0 mm 0 W/m2
20:54 10.6 °C 8.7 °C 1009.4 hPa Calm     88% 0 mm 0 W/m2
20:59 10.5 °C 8.6 °C 1009.4 hPa Calm     88% 0 mm 0 W/m2
21:04 10.4 °C 8.6 °C 1009.4 hPa Calm     88.5% 0 mm 0 W/m2
21:09 10.3 °C 8.6 °C 1009.4 hPa Calm     89% 0 mm 0 W/m2
21:14 10.3 °C 8.5 °C 1009.7 hPa Calm     89% 0 mm 0 W/m2
21:19 10.2 °C 8.6 °C 1009.7 hPa Calm     89.8% 0 mm 0 W/m2
21:24 10.2 °C 8.6 °C 1009.7 hPa Calm     90% 0 mm 0 W/m2
21:29 10.2 °C 8.6 °C 1009.7 hPa Calm     90% 0 mm 0 W/m2
21:34 10.2 °C 8.6 °C 1009.7 hPa Calm     90% 0 mm 0 W/m2
21:39 10.2 °C 8.6 °C 1009.7 hPa Calm     89.8% 0 mm 0 W/m2
21:44 10.3 °C 8.5 °C 1009.7 hPa Calm     89% 0 mm 0 W/m2
21:49 10.3 °C 8.6 °C 1009.7 hPa Calm   1.6 km/h 89% 0 mm 0 W/m2
21:54 10.4 °C 8.7 °C 1009.7 hPa Calm   1.6 km/h 89% 0 mm 0 W/m2
21:59 10.4 °C 8.7 °C 1009.7 hPa Calm   1.6 km/h 89% 0 mm 0 W/m2
22:04 10.5 °C 8.8 °C 1009.7 hPa Calm   1.6 km/h 89% 0 mm 0 W/m2
22:09 10.6 °C 8.8 °C 1009.7 hPa Calm     89% 0 mm 0 W/m2
22:14 10.6 °C 8.9 °C 1010 hPa Calm     89% 0 mm 0 W/m2
22:19 10.7 °C 8.9 °C 1010 hPa Calm     89% 0 mm 0 W/m2
22:24 10.7 °C 8.9 °C 1009.7 hPa Calm     89% 0 mm 0 W/m2
22:29 10.7 °C 8.9 °C 1009.7 hPa Calm     89% 0 mm 0 W/m2
22:34 10.7 °C 9 °C 1009.7 hPa Calm     89% 0 mm 0 W/m2
22:39 10.7 °C 8.9 °C 1009.7 hPa Calm     89% 0 mm 0 W/m2
22:44 10.7 °C 8.9 °C 1009.7 hPa Calm     89% 0 mm 0 W/m2
22:49 10.6 °C 8.9 °C 1009.7 hPa Calm     89% 0 mm 0 W/m2
22:54 10.6 °C 8.8 °C 1009.7 hPa Calm     89% 0 mm 0 W/m2
22:59 10.6 °C 8.8 °C 1009.7 hPa Calm     89% 0 mm 0 W/m2
23:04 10.5 °C 8.8 °C 1009.7 hPa Calm   3.2 km/h 89% 0 mm 0 W/m2
23:09 10.4 °C 8.7 °C 1009.7 hPa Calm   3.2 km/h 89% 0 mm 0 W/m2
23:14 10.4 °C 8.7 °C 1009.7 hPa Calm   3.2 km/h 89% 0 mm 0 W/m2
23:19 10.4 °C 8.8 °C 1009.7 hPa Calm   3.2 km/h 89.7% 0 mm 0 W/m2
23:24 10.4 °C 8.8 °C 1009.7 hPa NE 0.2 km/h 3.2 km/h 89.5% 0 mm 0 W/m2
23:29 10.5 °C 8.8 °C 1009.7 hPa Calm   3.2 km/h 89% 0 mm 0 W/m2
23:34 10.5 °C 8.8 °C 1009.7 hPa Calm   3.2 km/h 89% 0 mm 0 W/m2
23:39 10.6 °C 8.8 °C 1009.7 hPa Calm     89% 0 mm 0 W/m2
23:44 10.6 °C 8.8 °C 1009.7 hPa Calm     89% 0 mm 0 W/m2
23:49 10.6 °C 8.8 °C 1009.7 hPa NE 0.5 km/h 6.4 km/h 89% 0 mm 0 W/m2
23:54 10.5 °C 8.6 °C 1009.4 hPa ENE 2.1 km/h 8 km/h 88.1% 0 mm 0 W/m2
23:59 10.5 °C 8.4 °C 1009.4 hPa ENE 1 km/h 8 km/h 87.1% 0 mm 0 W/m2
Hartford County Weather
Compliments of Weather Underground - 2 mb